Time;durP1;ratioP1;P1;durP2;ratioP2;P2;SDS_P1;SDS_P2;PMS_P1;PMS_P2;Temp;Humidity;BMP_temperature;BMP_pressure;BME280_temperature;BME280_humidity;BME280_pressure;Samples;Min_cycle;Max_cycle;Signal;HPM_P1;HPM_P2
2022/10/11 00:00:17;;;;;;;;;5.00;3.00;;;;;22.10;47.61;100936.36;105485;1295;31030;-55
2022/10/11 00:03:04;;;;;;;;;7.00;6.00;;;;;22.09;47.57;100932.61;105516;1292;29452;-54
2022/10/11 00:05:31;;;;;;;;;4.50;4.50;;;;;22.08;47.37;100937.08;105507;1296;32140;-55
2022/10/11 00:07:59;;;;;;;;;6.00;5.00;;;;;22.10;47.55;100941.48;105512;1272;29593;-54
2022/10/11 00:10:26;;;;;;;;;6.00;6.00;;;;;22.10;47.56;100941.27;105497;1280;31287;-54
2022/10/11 00:12:53;;;;;;;;;6.00;5.00;;;;;22.10;47.53;100940.42;105499;1276;31950;-53
2022/10/11 00:15:20;;;;;;;;;3.00;3.00;;;;;22.08;47.51;100945.64;105537;1288;32076;-53
2022/10/11 00:17:48;;;;;;;;;5.00;4.00;;;;;22.10;47.62;100954.21;105521;1280;32012;-54
2022/10/11 00:20:15;;;;;;;;;3.00;3.00;;;;;22.09;47.52;100946.42;105502;1272;31360;-52
2022/10/11 00:22:42;;;;;;;;;5.00;5.00;;;;;22.10;47.32;100956.39;105508;1296;31261;-54
2022/10/11 00:25:10;;;;;;;;;5.00;5.00;;;;;22.09;47.43;100949.80;105572;1303;31968;-54
2022/10/11 00:27:37;;;;;;;;;6.50;5.50;;;;;22.08;47.48;100953.29;105476;1280;33079;-55
2022/10/11 00:30:04;;;;;;;;;5.00;5.00;;;;;22.08;47.43;100950.96;105535;1272;32457;-53
2022/10/11 00:32:31;;;;;;;;;7.00;6.00;;;;;22.08;47.28;100947.14;105504;1272;31361;-52
2022/10/11 00:35:05;;;;;;;;;3.00;3.00;;;;;22.06;47.33;100950.05;105531;1272;31618;-51
2022/10/11 00:37:33;;;;;;;;;5.00;5.00;;;;;22.07;47.53;100953.02;105515;1296;31162;-55
2022/10/11 00:40:00;;;;;;;;;5.00;5.00;;;;;22.07;47.31;100950.23;105539;1301;30668;-53
2022/10/11 00:42:27;;;;;;;;;3.00;3.00;;;;;22.07;47.35;100950.83;105507;1280;32141;-54
2022/10/11 00:44:55;;;;;;;;;6.50;5.50;;;;;22.07;47.40;100949.77;105505;1279;32395;-52
2022/10/11 00:47:22;;;;;;;;;4.00;3.00;;;;;22.06;47.20;100950.59;105470;1280;37471;-55
2022/10/11 00:49:49;;;;;;;;;;;;;;;22.08;47.53;100950.09;105431;1302;32999;-54
2022/10/11 00:52:16;;;;;;;;;6.00;5.00;;;;;22.07;47.41;100952.75;105552;1285;29687;-55
2022/10/11 00:54:44;;;;;;;;;3.00;3.00;;;;;22.05;47.39;100947.69;105587;1301;31160;-57
2022/10/11 00:57:11;;;;;;;;;9.00;7.00;;;;;22.06;47.53;100953.58;105522;1301;33038;-52
2022/10/11 00:59:39;;;;;;;;;5.00;5.00;;;;;22.05;47.30;100957.15;105460;1280;31325;-53
2022/10/11 01:02:06;;;;;;;;;7.00;6.67;;;;;22.07;47.24;100953.84;105527;1295;32968;-53
2022/10/11 01:04:33;;;;;;;;;6.00;6.00;;;;;22.07;47.32;100956.39;105467;1298;31322;-52
2022/10/11 01:07:01;;;;;;;;;6.00;6.00;;;;;22.05;47.35;100958.02;105545;1303;30054;-51
2022/10/11 01:09:28;;;;;;;;;;;;;;;22.05;47.32;100956.36;105529;1272;31864;-55
2022/10/11 01:11:55;;;;;;;;;7.00;5.00;;;;;22.05;47.42;100948.20;105497;1302;31122;-53
2022/10/11 01:14:22;;;;;;;;;9.00;8.00;;;;;22.05;47.20;100946.88;105524;1302;30578;-52
2022/10/11 01:16:50;;;;;;;;;5.00;5.00;;;;;22.05;47.40;100946.43;105503;1276;29475;-55
2022/10/11 01:19:17;;;;;;;;;6.00;6.00;;;;;22.05;47.43;100942.75;105504;1280;29675;-51
2022/10/11 01:21:44;;;;;;;;;7.00;6.00;;;;;22.04;47.45;100941.27;105523;1280;34555;-54
2022/10/11 01:24:11;;;;;;;;;6.00;6.00;;;;;22.04;47.40;100941.59;105528;1280;32219;-54
2022/10/11 01:26:39;;;;;;;;;6.00;6.00;;;;;22.04;47.31;100942.11;105426;1294;32255;-52
2022/10/11 01:29:06;;;;;;;;;5.00;5.00;;;;;22.04;47.36;100934.54;105443;1295;31583;-55
2022/10/11 01:31:33;;;;;;;;;5.00;5.00;;;;;22.04;47.31;100944.91;105428;1286;31272;-54
2022/10/11 01:34:01;;;;;;;;;9.00;6.00;;;;;22.04;47.46;100949.62;105533;1304;29606;-51
2022/10/11 01:36:28;;;;;;;;;6.00;5.00;;;;;22.03;47.45;100951.70;105496;1286;31863;-56
2022/10/11 01:38:56;;;;;;;;;5.00;5.00;;;;;22.03;47.34;100952.59;105543;1280;30535;-53
2022/10/11 01:41:23;;;;;;;;;5.00;5.00;;;;;22.03;47.53;100950.98;105524;1279;29559;-54
2022/10/11 01:43:51;;;;;;;;;5.00;5.00;;;;;22.05;47.60;100959.36;105524;1295;30775;-55
2022/10/11 01:46:18;;;;;;;;;2.00;2.00;;;;;22.04;47.62;100963.42;105522;1286;34136;-52
2022/10/11 01:48:45;;;;;;;;;5.00;4.00;;;;;22.05;47.65;100963.67;105578;1303;31929;-54
2022/10/11 01:51:13;;;;;;;;;5.00;3.00;;;;;22.05;47.75;100960.39;105528;1280;31908;-51
2022/10/11 01:53:40;;;;;;;;;5.00;5.00;;;;;22.06;47.68;100967.55;105461;1276;31512;-54
2022/10/11 01:56:07;;;;;;;;;5.00;3.00;;;;;22.05;47.64;100976.05;105482;1280;31740;-54
2022/10/11 01:58:34;;;;;;;;;3.00;3.00;;;;;22.06;47.92;100977.04;105504;1303;30790;-54
2022/10/11 02:01:02;;;;;;;;;2.00;2.00;;;;;22.06;48.07;100974.52;105571;1280;31464;-53
2022/10/11 02:03:29;;;;;;;;;3.00;3.00;;;;;22.05;48.03;100980.05;105521;1272;31798;-51
2022/10/11 02:05:56;;;;;;;;;5.00;3.00;;;;;22.05;48.10;100975.89;105505;1302;32522;-54
2022/10/11 02:08:23;;;;;;;;;3.00;3.00;;;;;22.07;48.13;100983.66;105491;1295;31305;-52
2022/10/11 02:10:51;;;;;;;;;2.00;2.00;;;;;22.05;48.14;100989.11;105516;1288;30907;-53
2022/10/11 02:13:18;;;;;;;;;5.00;3.00;;;;;22.05;48.20;100989.67;105515;1303;29536;-54
2022/10/11 02:15:45;;;;;;;;;3.00;3.00;;;;;22.05;48.29;100990.63;105555;1304;30145;-53
2022/10/11 02:18:12;;;;;;;;;2.00;2.00;;;;;22.05;48.36;100982.95;105547;1273;32011;-54
2022/10/11 02:20:40;;;;;;;;;3.00;3.00;;;;;22.04;48.40;100987.58;105531;1302;29568;-52
2022/10/11 02:23:07;;;;;;;;;3.00;3.00;;;;;22.04;48.47;100985.95;105547;1286;29438;-52
2022/10/11 02:25:34;;;;;;;;;5.00;5.00;;;;;22.06;48.40;100995.81;105491;1294;31467;-53
2022/10/11 02:28:02;;;;;;;;;3.00;3.00;;;;;22.06;48.42;100990.55;105542;1304;32300;-58
2022/10/11 02:30:29;;;;;;;;;;;;;;;22.05;48.54;100993.32;105529;1280;33482;-56
2022/10/11 02:32:56;;;;;;;;;4.00;4.00;;;;;22.06;48.42;100995.36;105524;1303;31271;-55
2022/10/11 02:35:24;;;;;;;;;2.00;2.00;;;;;22.06;48.37;100999.02;105501;1279;31900;-52
2022/10/11 02:37:51;;;;;;;;;3.00;3.00;;;;;22.06;48.52;100997.45;105490;1296;31054;-52
2022/10/11 02:40:18;;;;;;;;;2.00;2.00;;;;;22.05;48.57;100997.14;105513;1302;31340;-54
2022/10/11 02:42:45;;;;;;;;;5.00;5.00;;;;;22.06;48.49;101000.70;105554;1303;33637;-55
2022/10/11 02:45:13;;;;;;;;;3.00;3.00;;;;;22.06;48.67;100999.19;105506;1273;32496;-56
2022/10/11 02:47:40;;;;;;;;;3.00;3.00;;;;;22.05;48.71;101004.80;105536;1280;32039;-54
2022/10/11 02:50:07;;;;;;;;;2.00;2.00;;;;;22.05;48.67;101010.23;105534;1293;32570;-56
2022/10/11 02:52:34;;;;;;;;;2.00;2.00;;;;;22.05;48.79;101012.77;105483;1293;32992;-54
2022/10/11 02:55:02;;;;;;;;;3.00;3.00;;;;;22.06;48.66;101012.16;105554;1303;30981;-51
2022/10/11 02:57:29;;;;;;;;;3.00;2.00;;;;;22.06;48.82;101016.17;105533;1272;29556;-54
2022/10/11 02:59:56;;;;;;;;;4.00;3.00;;;;;22.04;48.73;101023.23;105544;1294;32618;-56
2022/10/11 03:02:23;;;;;;;;;4.00;3.00;;;;;22.06;48.70;101023.27;105498;1280;31879;-52
2022/10/11 03:04:51;;;;;;;;;2.00;2.00;;;;;22.05;48.80;101022.05;105518;1272;31308;-54
2022/10/11 03:07:18;;;;;;;;;3.00;3.00;;;;;22.05;48.91;101022.59;105543;1280;32048;-54
2022/10/11 03:09:46;;;;;;;;;3.00;3.00;;;;;22.06;48.70;101023.61;105496;1303;31249;-55
2022/10/11 03:12:13;;;;;;;;;3.00;3.00;;;;;22.06;48.78;101030.77;105526;1296;31277;-56
2022/10/11 03:14:40;;;;;;;;;3.00;2.50;;;;;22.05;48.82;101032.41;105518;1277;31940;-55
2022/10/11 03:17:07;;;;;;;;;3.00;3.00;;;;;22.05;48.98;101038.26;105375;1279;103831;-54
2022/10/11 03:19:35;;;;;;;;;3.00;3.00;;;;;22.03;49.08;101036.66;105503;1303;31199;-53
2022/10/11 03:22:02;;;;;;;;;3.00;2.00;;;;;22.04;49.01;101042.25;105574;1272;32457;-55
2022/10/11 03:24:29;;;;;;;;;3.00;3.00;;;;;22.03;48.98;101043.28;105513;1288;31784;-52
2022/10/11 03:26:56;;;;;;;;;3.00;3.00;;;;;22.03;49.00;101050.92;105502;1280;30524;-54
2022/10/11 03:29:24;;;;;;;;;3.00;3.00;;;;;22.03;49.06;101058.36;105521;1296;31929;-54
2022/10/11 03:31:51;;;;;;;;;5.00;5.00;;;;;22.03;49.03;101062.86;105512;1280;32271;-54
2022/10/11 03:34:19;;;;;;;;;2.50;2.50;;;;;22.04;48.94;101067.02;105544;1302;30764;-54
2022/10/11 03:36:47;;;;;;;;;2.00;2.00;;;;;22.03;49.12;101073.27;105513;1304;30967;-54
2022/10/11 03:39:14;;;;;;;;;3.00;3.00;;;;;22.04;49.16;101080.13;105529;1302;31847;-52
2022/10/11 03:41:42;;;;;;;;;3.00;3.00;;;;;22.03;48.97;101081.59;105524;1303;36663;-53
2022/10/11 03:44:09;;;;;;;;;;;;;;;22.03;49.15;101083.30;105487;1279;31827;-55
2022/10/11 03:46:36;;;;;;;;;5.00;3.00;;;;;22.03;49.25;101085.48;105489;1280;32176;-55
2022/10/11 03:49:04;;;;;;;;;7.00;5.00;;;;;22.03;49.05;101082.21;105519;1303;31723;-56
2022/10/11 03:51:31;;;;;;;;;3.00;3.00;;;;;22.04;49.05;101087.94;105507;1280;31265;-55
2022/10/11 03:53:59;;;;;;;;;5.00;3.00;;;;;22.03;49.03;101089.86;105540;1280;30675;-53
2022/10/11 03:56:26;;;;;;;;;3.00;3.00;;;;;22.04;49.04;101094.29;105496;1296;32110;-53
2022/10/11 03:58:54;;;;;;;;;2.50;2.50;;;;;22.04;49.14;101092.06;105519;1303;33667;-54
2022/10/11 04:01:22;;;;;;;;;3.00;3.00;;;;;22.04;49.15;101098.48;105491;1279;32811;-56
2022/10/11 04:03:49;;;;;;;;;5.00;5.00;;;;;22.04;49.21;101102.64;105505;1303;32218;-55
2022/10/11 04:06:16;;;;;;;;;3.00;3.00;;;;;22.04;49.09;101104.65;105531;1279;37480;-56
2022/10/11 04:08:44;;;;;;;;;4.00;4.00;;;;;22.05;49.04;101104.17;105504;1289;31272;-54
2022/10/11 04:11:11;;;;;;;;;5.00;4.00;;;;;22.04;49.06;101106.64;105500;1296;29491;-55
2022/10/11 04:13:38;;;;;;;;;4.00;4.00;;;;;22.04;49.06;101109.37;105498;1280;32267;-55
2022/10/11 04:16:06;;;;;;;;;3.00;3.00;;;;;22.03;49.14;101115.81;105516;1303;31328;-54
2022/10/11 04:18:33;;;;;;;;;;;;;;;22.03;49.19;101115.38;105471;1303;32348;-55
2022/10/11 04:21:00;;;;;;;;;3.00;3.00;;;;;22.04;49.29;101124.13;105467;1273;31655;-55
2022/10/11 04:23:27;;;;;;;;;5.00;3.00;;;;;22.03;49.22;101123.50;105480;1272;29624;-55
2022/10/11 04:25:55;;;;;;;;;4.00;3.00;;;;;22.04;49.21;101125.19;105502;1272;31395;-55
2022/10/11 04:28:22;;;;;;;;;3.00;3.00;;;;;22.03;49.27;101130.73;105470;1280;29709;-55
2022/10/11 04:30:49;;;;;;;;;3.00;3.00;;;;;22.04;49.24;101134.34;105530;1304;31862;-53
2022/10/11 04:33:16;;;;;;;;;3.00;3.00;;;;;22.03;49.09;101131.89;105514;1280;32919;-55
2022/10/11 04:35:44;;;;;;;;;2.00;2.00;;;;;22.03;49.34;101134.11;105488;1272;31850;-52
2022/10/11 04:38:11;;;;;;;;;4.00;4.00;;;;;22.03;49.24;101133.73;105518;1280;31604;-55
2022/10/11 04:40:38;;;;;;;;;3.00;3.00;;;;;22.03;49.42;101137.86;105484;1303;31161;-55
2022/10/11 04:43:06;;;;;;;;;2.00;2.00;;;;;22.02;49.32;101142.13;105530;1304;31955;-55
2022/10/11 04:45:33;;;;;;;;;4.00;4.00;;;;;22.01;49.32;101143.44;105530;1294;33274;-55
2022/10/11 04:48:00;;;;;;;;;2.33;2.33;;;;;22.03;49.25;101148.65;105502;1278;30637;-54
2022/10/11 04:50:27;;;;;;;;;3.00;3.00;;;;;22.03;49.35;101151.67;105459;1282;31924;-53
2022/10/11 04:52:55;;;;;;;;;2.00;2.00;;;;;22.02;49.23;101156.02;105556;1279;31293;-55
2022/10/11 04:55:22;;;;;;;;;3.00;3.00;;;;;22.02;49.50;101155.61;105497;1294;31694;-52
2022/10/11 04:57:49;;;;;;;;;2.00;2.00;;;;;22.04;49.45;101157.11;105539;1298;31060;-53
2022/10/11 05:00:16;;;;;;;;;3.00;3.00;;;;;22.06;49.41;101163.96;105512;1296;29538;-55
2022/10/11 05:02:44;;;;;;;;;2.00;2.00;;;;;22.05;49.52;101160.63;105486;1295;31847;-56
2022/10/11 05:05:11;;;;;;;;;2.00;2.00;;;;;22.07;49.84;101167.64;105500;1286;30414;-55
2022/10/11 05:07:39;;;;;;;;;3.00;3.00;;;;;22.09;50.04;101170.71;105540;1302;32012;-54
2022/10/11 05:10:06;;;;;;;;;3.00;3.00;;;;;22.09;50.48;101172.15;105545;1280;32162;-56
2022/10/11 05:12:33;;;;;;;;;4.00;4.00;;;;;22.09;50.65;101180.29;105444;1273;30727;-56
2022/10/11 05:15:00;;;;;;;;;3.00;3.00;;;;;22.09;50.72;101182.70;105469;1289;31888;-55
2022/10/11 05:17:28;;;;;;;;;;;;;;;22.10;50.63;101186.24;105465;1279;33307;-52
2022/10/11 05:19:55;;;;;;;;;3.00;3.00;;;;;22.09;50.63;101190.34;105485;1303;31840;-55
2022/10/11 05:22:22;;;;;;;;;2.50;2.50;;;;;22.09;50.80;101197.48;105465;1280;33204;-55
2022/10/11 05:24:50;;;;;;;;;3.00;3.00;;;;;22.08;50.97;101193.92;105513;1295;32247;-55
2022/10/11 05:27:17;;;;;;;;;5.00;3.00;;;;;22.07;50.93;101199.83;105497;1280;31988;-54
2022/10/11 05:29:44;;;;;;;;;3.00;3.00;;;;;22.09;50.78;101202.89;105464;1303;30480;-55
2022/10/11 05:32:12;;;;;;;;;5.50;5.00;;;;;22.10;50.49;101209.77;105463;1271;32123;-56
2022/10/11 05:34:39;;;;;;;;;3.00;3.00;;;;;22.10;50.56;101213.92;105450;1272;32357;-53
2022/10/11 05:37:06;;;;;;;;;7.00;6.00;;;;;22.10;50.70;101216.59;105514;1303;31125;-56
2022/10/11 05:39:34;;;;;;;;;5.00;5.00;;;;;22.11;50.65;101219.73;105482;1280;40597;-54
2022/10/11 05:42:01;;;;;;;;;5.00;5.00;;;;;22.11;50.85;101220.68;105486;1272;30136;-54
2022/10/11 05:44:28;;;;;;;;;3.00;3.00;;;;;22.11;50.82;101228.02;105534;1286;29692;-54
2022/10/11 05:46:56;;;;;;;;;5.00;5.00;;;;;22.11;50.79;101232.14;105484;1280;31089;-53
2022/10/11 05:49:23;;;;;;;;;2.50;2.50;;;;;22.12;50.85;101235.46;105518;1297;31289;-55
2022/10/11 05:51:50;;;;;;;;;3.00;3.00;;;;;22.17;51.02;101239.75;105520;1302;30458;-55
2022/10/11 05:54:17;;;;;;;;;2.00;2.00;;;;;22.19;51.11;101247.70;105499;1280;30778;-53
2022/10/11 05:56:45;;;;;;;;;3.00;2.50;;;;;22.20;51.04;101250.00;105498;1280;32562;-54
2022/10/11 05:59:12;;;;;;;;;5.00;5.00;;;;;22.21;51.13;101262.77;105500;1278;31982;-55
2022/10/11 06:01:39;;;;;;;;;5.00;3.00;;;;;22.23;51.45;101264.19;105480;1297;32165;-55
2022/10/11 06:04:07;;;;;;;;;3.00;3.00;;;;;22.26;51.26;101270.52;105554;1303;31991;-51
2022/10/11 06:06:34;;;;;;;;;6.00;6.00;;;;;22.29;51.41;101274.16;105461;1280;29641;-54
2022/10/11 06:09:02;;;;;;;;;5.00;5.00;;;;;22.33;51.73;101276.69;105484;1303;31868;-53
2022/10/11 06:11:29;;;;;;;;;7.00;7.00;;;;;22.35;51.85;101282.18;105524;1272;31611;-52
2022/10/11 06:13:56;;;;;;;;;6.00;6.00;;;;;22.38;51.59;101288.15;105494;1286;32073;-54
2022/10/11 06:16:24;;;;;;;;;3.00;3.00;;;;;22.40;51.76;101291.83;105501;1288;30071;-55
2022/10/11 06:18:51;;;;;;;;;5.00;5.00;;;;;22.43;51.62;101300.84;105520;1280;31733;-52
2022/10/11 06:21:18;;;;;;;;;;;;;;;22.44;51.61;101308.52;105459;1280;32090;-54
2022/10/11 06:23:45;;;;;;;;;3.00;3.00;;;;;22.46;51.74;101310.85;105512;1280;32322;-51
2022/10/11 06:26:13;;;;;;;;;4.00;2.50;;;;;22.48;51.62;101312.77;105517;1280;32523;-53
2022/10/11 06:28:40;;;;;;;;;3.00;2.00;;;;;22.53;51.80;101319.05;105474;1272;31182;-52
2022/10/11 06:31:07;;;;;;;;;2.00;2.00;;;;;22.55;51.50;101323.14;105523;1303;30004;-55
2022/10/11 06:33:35;;;;;;;;;3.00;3.00;;;;;22.56;51.56;101330.98;105419;1280;31845;-54
2022/10/11 06:36:02;;;;;;;;;2.50;2.00;;;;;22.57;51.48;101334.15;105496;1304;31201;-54
2022/10/11 06:38:30;;;;;;;;;4.00;3.00;;;;;22.60;51.11;101337.30;105449;1279;31772;-56
2022/10/11 06:40:57;;;;;;;;;2.00;2.00;;;;;22.62;51.34;101339.64;105450;1303;30124;-53
2022/10/11 06:43:25;;;;;;;;;2.00;2.00;;;;;22.65;51.15;101344.69;105475;1280;32384;-53
2022/10/11 06:45:52;;;;;;;;;3.00;3.00;;;;;22.68;50.97;101344.65;105480;1304;30970;-55
2022/10/11 06:48:19;;;;;;;;;5.00;5.00;;;;;22.70;50.86;101353.56;105449;1280;30047;-54
2022/10/11 06:50:47;;;;;;;;;3.00;2.00;;;;;22.73;50.71;101358.48;105442;1295;33451;-54
2022/10/11 06:53:14;;;;;;;;;2.00;2.00;;;;;22.74;50.87;101361.00;105513;1279;32326;-54
2022/10/11 06:55:41;;;;;;;;;;;;;;;22.76;50.73;101368.98;105488;1296;31279;-55
2022/10/11 06:58:09;;;;;;;;;3.00;3.00;;;;;22.77;50.65;101369.30;105514;1297;31941;-54
2022/10/11 07:00:36;;;;;;;;;3.00;2.00;;;;;22.76;50.46;101367.77;105426;1286;30530;-54
2022/10/11 07:03:03;;;;;;;;;2.00;2.00;;;;;22.78;50.38;101369.16;105414;1303;31243;-55
2022/10/11 07:05:31;;;;;;;;;3.00;2.50;;;;;22.81;50.41;101368.83;105478;1280;31137;-56
2022/10/11 07:07:58;;;;;;;;;3.00;3.00;;;;;22.83;50.38;101376.42;105457;1280;30527;-55
2022/10/11 07:10:25;;;;;;;;;2.00;2.00;;;;;22.86;50.30;101381.92;105438;1298;32022;-54
2022/10/11 07:12:52;;;;;;;;;3.00;2.00;;;;;22.85;50.17;101388.27;105458;1289;33168;-52
2022/10/11 07:15:20;;;;;;;;;4.00;3.00;;;;;22.80;49.64;101391.83;105376;1295;31700;-56
2022/10/11 07:17:48;;;;;;;;;5.00;5.00;;;;;22.79;49.22;101393.23;105454;1272;29964;-55
2022/10/11 07:20:15;;;;;;;;;3.00;3.00;;;;;22.76;48.97;101395.45;105466;1296;31142;-55
2022/10/11 07:22:42;;;;;;;;;5.00;5.00;;;;;22.75;48.46;101402.84;105486;1296;32049;-52
2022/10/11 07:25:09;;;;;;;;;6.00;6.00;;;;;22.73;47.97;101406.16;105455;1280;30139;-52
2022/10/11 07:27:37;;;;;;;;;;;;;;;22.70;47.64;101409.98;105431;1272;32385;-54
2022/10/11 07:30:04;;;;;;;;;5.00;5.00;;;;;22.68;47.44;101417.30;105455;1280;33031;-57
2022/10/11 07:32:31;;;;;;;;;5.00;5.00;;;;;22.64;47.19;101421.33;105331;1280;32303;-52
2022/10/11 07:34:58;;;;;;;;;7.00;6.00;;;;;22.63;46.96;101421.46;105446;1296;31855;-54
2022/10/11 07:37:26;;;;;;;;;7.00;7.00;;;;;22.62;46.83;101424.11;105513;1286;31285;-55
2022/10/11 07:39:54;;;;;;;;;67.00;51.00;;;;;22.62;46.87;101424.86;105487;1279;31196;-51
2022/10/11 07:42:22;;;;;;;;;89.00;64.00;;;;;22.68;46.47;101432.10;105504;1272;31074;-52
2022/10/11 07:44:49;;;;;;;;;90.00;65.00;;;;;22.72;46.50;101435.23;105566;1272;31092;-52
2022/10/11 07:47:16;;;;;;;;;93.00;66.00;;;;;22.78;46.81;101435.91;105521;1272;29692;-53
2022/10/11 07:49:44;;;;;;;;;81.00;59.00;;;;;22.80;46.98;101439.80;105500;1295;33192;-52
2022/10/11 07:52:11;;;;;;;;;;;;;;;22.84;47.09;101447.59;105517;1280;32006;-49
2022/10/11 07:54:39;;;;;;;;;68.00;50.00;;;;;22.81;47.20;101446.45;105495;1286;31974;-49
2022/10/11 07:57:06;;;;;;;;;59.00;40.50;;;;;22.75;46.98;101452.20;105458;1272;32366;-50
2022/10/11 07:59:33;;;;;;;;;25.00;24.00;;;;;22.69;46.61;101456.35;105426;1280;30162;-52
2022/10/11 08:02:01;;;;;;;;;20.00;19.00;;;;;22.66;46.31;101459.90;105528;1272;32049;-54
2022/10/11 08:04:28;;;;;;;;;17.00;13.00;;;;;22.64;45.64;101468.34;105475;1302;31265;-52
2022/10/11 08:06:55;;;;;;;;;9.00;9.00;;;;;22.69;45.31;101468.17;105462;1280;31908;-51
2022/10/11 08:09:23;;;;;;;;;12.00;10.00;;;;;22.65;44.55;101471.68;105499;1280;31952;-55
2022/10/11 08:11:50;;;;;;;;;9.00;8.00;;;;;22.63;44.09;101473.33;105552;1272;33624;-55
2022/10/11 08:14:17;;;;;;;;;10.00;9.00;;;;;22.64;43.61;101478.39;105470;1280;31100;-55
2022/10/11 08:16:45;;;;;;;;;10.00;7.00;;;;;22.68;43.17;101480.74;105555;1302;29684;-52
2022/10/11 08:19:12;;;;;;;;;6.00;5.00;;;;;22.62;43.02;101478.77;105525;1303;30388;-52
2022/10/11 08:21:39;;;;;;;;;9.00;9.00;;;;;22.60;42.62;101475.96;105568;1303;31868;-53
2022/10/11 08:24:07;;;;;;;;;7.00;7.00;;;;;22.59;42.63;101472.00;105533;1286;31872;-52
2022/10/11 08:26:34;;;;;;;;;9.50;8.00;;;;;22.66;42.59;101479.99;105441;1272;31325;-52
2022/10/11 08:29:02;;;;;;;;;8.00;6.50;;;;;22.76;42.53;101481.83;105522;1280;32002;-52
2022/10/11 08:31:30;;;;;;;;;7.00;7.00;;;;;22.77;42.24;101485.85;105486;1279;31283;-53
2022/10/11 08:33:57;;;;;;;;;6.50;6.00;;;;;22.78;42.04;101487.95;105397;1273;32423;-54
2022/10/11 08:36:24;;;;;;;;;10.00;9.00;;;;;22.79;42.02;101493.64;105461;1295;30187;-55
2022/10/11 08:38:51;;;;;;;;;7.00;6.00;;;;;22.87;41.86;101494.92;105527;1303;33452;-55
2022/10/11 08:41:19;;;;;;;;;7.00;6.00;;;;;22.85;41.65;101498.44;105463;1272;32064;-52
2022/10/11 08:43:46;;;;;;;;;9.00;7.00;;;;;22.90;41.71;101500.66;105526;1296;31867;-55
2022/10/11 08:46:13;;;;;;;;;5.50;5.50;;;;;22.97;41.78;101501.90;105552;1304;31346;-54
2022/10/11 08:48:40;;;;;;;;;6.67;6.33;;;;;23.02;41.27;101504.71;105431;1272;32020;-55
2022/10/11 08:51:08;;;;;;;;;5.00;5.00;;;;;22.92;41.34;101504.01;105501;1289;32314;-55
2022/10/11 08:53:35;;;;;;;;;7.00;6.00;;;;;22.88;41.53;101507.63;105456;1279;32724;-51
2022/10/11 08:56:02;;;;;;;;;4.00;4.00;;;;;22.83;41.54;101507.38;105474;1280;32467;-53
2022/10/11 08:58:30;;;;;;;;;9.00;7.00;;;;;22.90;41.44;101513.92;105537;1289;29863;-55
2022/10/11 09:00:57;;;;;;;;;6.00;6.00;;;;;22.89;41.12;101514.25;105541;1272;29774;-56
2022/10/11 09:03:25;;;;;;;;;5.00;5.00;;;;;22.78;41.33;101518.20;105522;1273;31989;-55
2022/10/11 09:05:52;;;;;;;;;7.00;6.00;;;;;22.72;41.48;101515.06;105491;1280;32144;-52
2022/10/11 09:08:21;;;;;;;;;9.00;6.50;;;;;22.66;41.39;101516.23;105493;1288;31520;-55
2022/10/11 09:10:48;;;;;;;;;7.00;7.00;;;;;22.55;41.36;101519.64;105508;1282;30303;-55
2022/10/11 09:13:15;;;;;;;;;20.00;18.50;;;;;22.48;41.46;101521.85;105521;1303;32350;-54
2022/10/11 09:15:42;;;;;;;;;14.50;11.00;;;;;22.51;41.40;101522.05;105530;1276;31331;-54
2022/10/11 09:18:09;;;;;;;;;16.00;12.00;;;;;22.54;41.51;101527.09;105513;1286;29815;-52
2022/10/11 09:20:37;;;;;;;;;17.00;12.00;;;;;22.54;41.34;101528.54;105500;1280;31987;-53
2022/10/11 09:23:04;;;;;;;;;20.00;18.00;;;;;22.47;41.28;101531.08;105512;1280;32187;-54
2022/10/11 09:25:32;;;;;;;;;14.00;12.00;;;;;22.47;41.35;101536.55;105450;1272;32444;-54
2022/10/11 09:27:59;;;;;;;;;15.50;14.00;;;;;22.47;41.34;101536.36;105399;1280;33877;-53
2022/10/11 09:30:26;;;;;;;;;13.00;13.00;;;;;22.48;41.19;101533.95;105423;1289;29559;-57
2022/10/11 09:32:53;;;;;;;;;14.00;11.50;;;;;22.49;41.10;101537.05;105405;1288;31869;-52
2022/10/11 09:35:21;;;;;;;;;13.00;12.00;;;;;22.49;41.10;101539.11;105408;1279;31858;-55
2022/10/11 09:37:48;;;;;;;;;10.50;10.00;;;;;22.44;40.86;101542.04;105406;1289;30764;-53
2022/10/11 09:40:15;;;;;;;;;9.00;9.00;;;;;22.43;40.94;101544.46;105511;1303;32494;-54
2022/10/11 09:42:42;;;;;;;;;9.50;8.00;;;;;22.44;40.83;101539.89;105442;1289;31489;-54
2022/10/11 09:45:10;;;;;;;;;8.00;7.00;;;;;22.42;40.68;101542.59;105425;1280;29588;-50
2022/10/11 09:47:37;;;;;;;;;7.00;7.00;;;;;22.41;40.63;101544.18;105329;1289;30665;-54
2022/10/11 09:50:05;;;;;;;;;7.00;6.00;;;;;22.40;40.76;101542.46;105439;1289;31270;-52
2022/10/11 09:52:32;;;;;;;;;;;;;;;22.38;40.68;101546.09;105411;1272;31393;-50
2022/10/11 09:55:00;;;;;;;;;10.00;10.00;;;;;22.38;40.67;101548.27;105454;1296;31153;-53
2022/10/11 09:57:29;;;;;;;;;9.00;9.00;;;;;22.37;40.66;101548.04;105409;1281;42761;-50
2022/10/11 09:59:56;;;;;;;;;9.00;9.00;;;;;22.36;40.51;101549.20;105452;1280;31287;-54
2022/10/11 10:02:23;;;;;;;;;7.00;6.00;;;;;22.36;40.62;101551.08;105449;1280;30847;-52
2022/10/11 10:04:50;;;;;;;;;7.00;6.00;;;;;22.32;40.52;101552.30;105445;1275;30683;-50
2022/10/11 10:07:18;;;;;;;;;9.00;9.00;;;;;22.33;40.43;101548.33;105487;1272;31859;-55
2022/10/11 10:09:45;;;;;;;;;6.00;6.00;;;;;22.33;40.57;101551.82;105474;1304;31069;-55
2022/10/11 10:12:12;;;;;;;;;7.00;6.50;;;;;22.32;40.58;101555.20;105472;1289;29812;-53
2022/10/11 10:14:39;;;;;;;;;5.50;5.50;;;;;22.30;40.59;101552.15;105458;1279;32185;-51
2022/10/11 10:17:08;;;;;;;;;7.00;6.00;;;;;22.29;40.57;101558.46;105443;1272;33189;-54
2022/10/11 10:19:35;;;;;;;;;5.50;5.50;;;;;22.27;40.48;101561.19;105472;1296;30997;-54
2022/10/11 10:22:02;;;;;;;;;6.00;6.00;;;;;22.29;40.49;101567.75;105501;1297;31312;-54
2022/10/11 10:24:30;;;;;;;;;7.00;6.00;;;;;22.25;40.35;101568.70;105392;1280;32012;-50
2022/10/11 10:26:57;;;;;;;;;6.00;5.50;;;;;22.21;40.33;101569.84;105470;1303;31016;-52
2022/10/11 10:29:24;;;;;;;;;;;;;;;22.20;40.16;101575.45;105475;1281;29578;-54
2022/10/11 10:31:52;;;;;;;;;7.00;7.00;;;;;22.20;40.14;101573.26;105484;1276;32908;-54
2022/10/11 10:34:19;;;;;;;;;7.00;6.50;;;;;22.17;40.01;101580.27;105506;1272;32008;-54
2022/10/11 10:36:46;;;;;;;;;7.00;6.00;;;;;22.16;39.94;101572.84;105461;1303;31241;-55
2022/10/11 10:39:13;;;;;;;;;11.00;10.00;;;;;22.13;39.55;101579.21;105473;1296;31366;-56
2022/10/11 10:41:41;;;;;;;;;20.00;16.00;;;;;22.14;39.53;101585.56;105475;1272;32124;-56
2022/10/11 10:44:08;;;;;;;;;16.00;15.00;;;;;22.13;39.91;101584.37;105526;1272;31238;-53
2022/10/11 10:46:36;;;;;;;;;15.00;14.00;;;;;22.11;39.54;101584.00;105539;1296;32410;-54
2022/10/11 10:49:03;;;;;;;;;13.50;11.00;;;;;22.10;39.76;101584.48;105529;1297;33425;-55
2022/10/11 10:51:30;;;;;;;;;;;;;;;22.10;39.69;101585.57;105549;1296;31371;-52
2022/10/11 10:53:58;;;;;;;;;13.00;11.00;;;;;22.09;39.57;101590.41;105507;1272;31347;-55
2022/10/11 10:56:25;;;;;;;;;7.00;7.00;;;;;22.04;39.42;101589.44;105490;1272;32106;-55
2022/10/11 10:58:52;;;;;;;;;9.00;9.00;;;;;22.04;39.46;101586.95;105506;1298;31857;-54
2022/10/11 11:01:20;;;;;;;;;9.00;7.00;;;;;22.01;39.27;101590.66;105525;1276;31979;-55
2022/10/11 11:03:47;;;;;;;;;7.00;6.00;;;;;21.98;39.44;101593.59;105532;1289;32881;-54
2022/10/11 11:06:14;;;;;;;;;5.00;5.00;;;;;21.96;39.29;101591.94;105517;1295;31300;-53
2022/10/11 11:08:41;;;;;;;;;7.00;7.00;;;;;21.95;39.19;101594.44;105504;1272;31236;-56
2022/10/11 11:11:09;;;;;;;;;5.00;5.00;;;;;21.94;39.19;101594.22;105502;1299;32169;-56
2022/10/11 11:13:36;;;;;;;;;6.00;6.00;;;;;21.92;39.06;101592.26;105535;1288;33136;-55
2022/10/11 11:16:03;;;;;;;;;5.00;5.00;;;;;21.92;39.02;101593.90;105565;1303;31378;-54
2022/10/11 11:18:30;;;;;;;;;5.00;5.00;;;;;21.90;39.04;101595.95;105509;1296;31844;-55